Time;durP1;ratioP1;P1;durP2;ratioP2;P2;SDS_P1;SDS_P2;PMS_P1;PMS_P2;Temp;Humidity;BMP_temperature;BMP_pressure;BME280_temperature;BME280_humidity;BME280_pressure;Samples;Min_cycle;Max_cycle;Signal;HPM_P1;HPM_P2
2023/07/28 00:00:59;;;;;;;;;;;24.30;59.20;;;;;;3053211;19;4725;-29
2023/07/28 00:01:59;;;;;;;;;;;24.30;59.30;;;;;;3054996;19;4813;-29
2023/07/28 00:03:00;;;;;;;;;;;24.30;59.40;;;;;;3054884;19;4788;-29
2023/07/28 00:04:04;;;;;;;;;;;24.30;59.30;;;;;;3055152;19;4660;-32
2023/07/28 00:05:05;;;;;;;;;;;24.30;59.30;;;;;;3054327;19;4908;-33
2023/07/28 00:06:05;;;;;;;;;;;24.30;59.40;;;;;;3054024;19;4779;-27
2023/07/28 00:07:06;;;;;;;;;;;24.30;59.40;;;;;;3053766;19;4790;-31
2023/07/28 00:08:07;;;;;;;;;;;24.30;59.40;;;;;;3053900;19;4747;-30
2023/07/28 00:09:07;;;;;;;;;;;24.30;59.40;;;;;;3054879;19;4713;-34
2023/07/28 00:10:08;;;;;;;;;;;24.30;59.30;;;;;;3053996;19;4657;-31
2023/07/28 00:11:13;;;;;;;;;;;24.20;59.30;;;;;;3054839;19;4652;-32
2023/07/28 00:12:14;;;;;;;;;;;24.30;59.40;;;;;;3054367;19;4932;-32
2023/07/28 00:13:14;;;;;;;;;;;24.30;59.30;;;;;;3055054;19;4788;-34
2023/07/28 00:14:15;;;;;;;;;;;24.30;59.30;;;;;;3054840;19;4637;-31
2023/07/28 00:15:16;;;;;;;;;;;24.30;59.50;;;;;;3054648;19;4871;-31
2023/07/28 00:16:16;;;;;;;;;;;24.30;59.40;;;;;;3055318;19;4702;-33
2023/07/28 00:17:17;;;;;;;;;;;24.30;59.30;;;;;;3054063;19;4795;-32
2023/07/28 00:18:18;;;;;;;;;;;24.30;59.30;;;;;;3055227;19;4622;-33
2023/07/28 00:19:20;;;;;;;;;;;24.30;59.30;;;;;;3054700;19;4820;-35
2023/07/28 00:20:21;;;;;;;;;;;24.30;59.30;;;;;;3054979;19;4665;-32
2023/07/28 00:21:22;;;;;;;;;;;24.30;59.40;;;;;;3054380;19;4719;-32
2023/07/28 00:22:22;;;;;;;;;;;24.30;59.30;;;;;;3053930;19;4675;-31
2023/07/28 00:23:23;;;;;;;;;;;24.30;59.40;;;;;;3054591;19;4810;-34
2023/07/28 00:24:24;;;;;;;;;;;24.30;59.30;;;;;;3053490;19;4689;-32
2023/07/28 00:25:25;;;;;;;;;;;24.30;59.30;;;;;;3054188;19;4900;-32
2023/07/28 00:26:25;;;;;;;;;;;24.30;59.40;;;;;;3055000;19;4672;-32
2023/07/28 00:27:26;;;;;;;;;;;24.30;59.40;;;;;;3055666;19;4822;-32
2023/07/28 00:28:26;;;;;;;;;;;24.30;59.40;;;;;;3054717;19;4801;-34
2023/07/28 00:29:27;;;;;;;;;;;24.30;59.40;;;;;;3054635;19;4693;-30
2023/07/28 00:30:29;;;;;;;;;;;24.30;59.40;;;;;;3054837;19;4958;-34
2023/07/28 00:31:29;;;;;;;;;;;24.30;59.40;;;;;;3055482;19;4855;-32
2023/07/28 00:32:30;;;;;;;;;;;24.30;59.40;;;;;;3054501;19;4839;-33
2023/07/28 00:33:30;;;;;;;;;;;24.30;59.50;;;;;;3055331;19;4764;-33
2023/07/28 00:34:31;;;;;;;;;;;24.30;59.50;;;;;;3054563;19;4513;-34
2023/07/28 00:35:32;;;;;;;;;;;24.30;59.40;;;;;;3054720;19;4763;-32
2023/07/28 00:36:32;;;;;;;;;;;24.20;59.30;;;;;;3053889;19;4774;-29
2023/07/28 00:37:33;;;;;;;;;;;24.20;59.30;;;;;;3054853;19;4917;-34
2023/07/28 00:38:34;;;;;;;;;;;24.30;59.40;;;;;;3054572;19;4806;-32
2023/07/28 00:39:34;;;;;;;;;;;24.20;59.30;;;;;;3054400;19;4769;-31
2023/07/28 00:40:35;;;;;;;;;;;24.20;59.30;;;;;;3054543;19;4798;-33
2023/07/28 00:41:36;;;;;;;;;;;24.20;59.30;;;;;;3054117;19;4854;-32
2023/07/28 00:42:36;;;;;;;;;;;24.30;59.50;;;;;;3053984;19;4781;-33
2023/07/28 00:43:37;;;;;;;;;;;24.30;59.40;;;;;;3053891;19;4645;-33
2023/07/28 00:44:38;;;;;;;;;;;24.20;59.30;;;;;;3053480;19;4665;-33
2023/07/28 00:45:38;;;;;;;;;;;24.20;59.30;;;;;;3054160;19;4717;-32
2023/07/28 00:46:39;;;;;;;;;;;24.20;59.40;;;;;;3054546;19;4767;-33
2023/07/28 00:47:40;;;;;;;;;;;24.20;59.40;;;;;;3052904;19;4659;-34
2023/07/28 00:48:40;;;;;;;;;;;24.20;59.30;;;;;;3053820;19;4784;-32
2023/07/28 00:49:41;;;;;;;;;;;24.20;59.30;;;;;;3052158;19;4912;-33
2023/07/28 00:50:42;;;;;;;;;;;24.20;59.30;;;;;;3053010;19;4629;-33
2023/07/28 00:51:42;;;;;;;;;;;24.20;59.30;;;;;;3052712;19;4841;-32
2023/07/28 00:52:43;;;;;;;;;;;24.20;59.30;;;;;;3051886;19;4870;-32
2023/07/28 00:53:44;;;;;;;;;;;24.20;59.30;;;;;;3052981;19;4815;-32
2023/07/28 00:54:44;;;;;;;;;;;24.20;59.40;;;;;;3052726;19;4678;-33
2023/07/28 00:55:45;;;;;;;;;;;24.20;59.40;;;;;;3052213;19;4961;-33
2023/07/28 00:56:46;;;;;;;;;;;24.20;60.00;;;;;;3053120;19;4799;-32
2023/07/28 00:57:47;;;;;;;;;;;24.20;60.00;;;;;;3052786;19;4859;-31
2023/07/28 00:58:47;;;;;;;;;;;24.20;59.40;;;;;;3051276;19;4650;-23
2023/07/28 00:59:48;;;;;;;;;;;24.20;59.50;;;;;;3053544;19;4643;-25
2023/07/28 01:00:49;;;;;;;;;;;24.20;59.40;;;;;;3053087;19;4665;-25
2023/07/28 01:01:49;;;;;;;;;;;24.20;59.50;;;;;;3049356;19;4886;-32
2023/07/28 01:02:50;;;;;;;;;;;24.20;59.50;;;;;;3054100;19;4790;-30
2023/07/28 01:11:07;;;;;;;;;;;24.20;59.50;;;;;;3045777;19;3872;-72
2023/07/28 01:12:09;;;;;;;;;;;24.20;59.60;;;;;;3049942;19;5540;-72
2023/07/28 01:13:09;;;;;;;;;;;24.20;59.50;;;;;;3048313;19;5362;-72
2023/07/28 01:14:10;;;;;;;;;;;24.20;59.50;;;;;;3047953;19;5380;-72
2023/07/28 01:15:10;;;;;;;;;;;24.20;59.50;;;;;;3051848;19;5430;-70
2023/07/28 01:16:11;;;;;;;;;;;24.20;59.50;;;;;;3050933;19;4905;-71
2023/07/28 01:17:12;;;;;;;;;;;24.20;59.50;;;;;;3050290;19;894;-72
2023/07/28 01:18:12;;;;;;;;;;;24.10;59.50;;;;;;3048660;19;5270;-72
2023/07/28 01:19:14;;;;;;;;;;;24.10;59.50;;;;;;3049787;19;944;-71
2023/07/28 01:20:14;;;;;;;;;;;24.10;59.50;;;;;;3047148;19;6681;-72
2023/07/28 01:21:24;;;;;;;;;;;24.10;59.50;;;;;;3048432;19;5337;-71
2023/07/28 01:22:24;;;;;;;;;;;24.10;59.50;;;;;;3048308;19;4645;-71
2023/07/28 01:23:51;;;;;;;;;;;24.10;59.70;;;;;;3048125;19;5137;-72
2023/07/28 01:25:20;;;;;;;;;;;24.10;59.60;;;;;;3049345;19;5336;-71
2023/07/28 01:26:39;;;;;;;;;;;24.20;59.70;;;;;;2947472;19;2004993;-73
2023/07/28 01:27:42;;;;;;;;;;;24.10;59.60;;;;;;3051633;19;5383;-73
2023/07/28 01:28:43;;;;;;;;;;;24.10;59.60;;;;;;3050065;19;5032;-74
2023/07/28 01:29:44;;;;;;;;;;;24.10;59.50;;;;;;3050077;19;5371;-73
2023/07/28 01:30:44;;;;;;;;;;;24.10;59.60;;;;;;3050224;19;5318;-74
2023/07/28 01:31:47;;;;;;;;;;;24.10;59.50;;;;;;3050120;19;5257;-74
2023/07/28 01:32:48;;;;;;;;;;;24.10;59.60;;;;;;3050492;19;4956;-74
2023/07/28 01:33:49;;;;;;;;;;;24.10;59.50;;;;;;3050868;19;4795;-74
2023/07/28 01:34:49;;;;;;;;;;;24.10;59.60;;;;;;3050799;19;5454;-72
2023/07/28 01:35:50;;;;;;;;;;;24.10;59.80;;;;;;3050553;19;5214;-73
2023/07/28 01:36:52;;;;;;;;;;;24.10;59.50;;;;;;3049939;19;4615;-72
2023/07/28 01:37:53;;;;;;;;;;;24.10;59.60;;;;;;3049519;19;5377;-72
2023/07/28 01:38:54;;;;;;;;;;;24.10;59.70;;;;;;3048453;19;5486;-72
2023/07/28 01:39:54;;;;;;;;;;;24.10;59.60;;;;;;3049287;19;5304;-72
2023/07/28 01:40:55;;;;;;;;;;;24.10;59.50;;;;;;3049662;19;5234;-72
2023/07/28 01:41:56;;;;;;;;;;;24.10;59.60;;;;;;3048746;19;4851;-72
2023/07/28 01:42:56;;;;;;;;;;;24.10;59.70;;;;;;3049532;19;5250;-72
2023/07/28 01:43:57;;;;;;;;;;;24.10;59.50;;;;;;3048938;19;4720;-72
2023/07/28 01:44:58;;;;;;;;;;;24.10;59.50;;;;;;3049056;19;4799;-72
2023/07/28 01:45:59;;;;;;;;;;;24.10;59.50;;;;;;3049222;19;5276;-72
2023/07/28 01:46:59;;;;;;;;;;;24.10;59.60;;;;;;3050281;19;4906;-72
2023/07/28 01:48:00;;;;;;;;;;;24.10;59.60;;;;;;3051645;19;5246;-72
2023/07/28 01:49:01;;;;;;;;;;;24.10;59.70;;;;;;3052513;19;5397;-72
2023/07/28 01:50:01;;;;;;;;;;;22.70;58.80;;;;;;3052130;19;5547;-71
2023/07/28 01:51:04;;;;;;;;;;;24.10;59.70;;;;;;3052632;19;4639;-72
2023/07/28 01:52:04;;;;;;;;;;;23.50;59.30;;;;;;3051493;19;4827;-68
2023/07/28 01:53:06;;;;;;;;;;;24.10;59.70;;;;;;3050873;19;5322;-68
2023/07/28 01:54:07;;;;;;;;;;;24.10;59.60;;;;;;3051477;19;5141;-68
2023/07/28 01:55:07;;;;;;;;;;;24.10;59.70;;;;;;3050147;19;5138;-67
2023/07/28 01:56:08;;;;;;;;;;;24.10;59.70;;;;;;3050129;19;4673;-68
2023/07/28 01:57:09;;;;;;;;;;;24.20;59.80;;;;;;3050194;19;5015;-70
2023/07/28 01:58:09;;;;;;;;;;;24.10;59.70;;;;;;3051303;19;4829;-68
2023/07/28 01:59:10;;;;;;;;;;;24.10;59.70;;;;;;3047399;19;5153;-69
2023/07/28 02:00:11;;;;;;;;;;;24.10;59.70;;;;;;3050953;19;5228;-70
2023/07/28 02:01:14;;;;;;;;;;;24.10;59.80;;;;;;3050453;19;7880;-69
2023/07/28 02:02:15;;;;;;;;;;;24.10;59.70;;;;;;3051971;19;946;-69
2023/07/28 02:03:16;;;;;;;;;;;24.10;59.70;;;;;;3050110;19;20213;-67
2023/07/28 02:04:16;;;;;;;;;;;24.10;59.70;;;;;;3051629;19;5356;-68
2023/07/28 02:05:17;;;;;;;;;;;24.10;60.00;;;;;;3049265;19;4662;-68
2023/07/28 02:06:18;;;;;;;;;;;24.10;59.70;;;;;;3048974;19;5362;-70
2023/07/28 02:07:18;;;;;;;;;;;24.10;59.70;;;;;;3049490;19;5359;-67
2023/07/28 02:08:19;;;;;;;;;;;24.10;59.70;;;;;;3050080;19;5246;-69
2023/07/28 02:09:19;;;;;;;;;;;24.10;59.70;;;;;;3050043;19;7757;-68
2023/07/28 02:10:27;;;;;;;;;;;24.10;59.80;;;;;;3048466;19;5484;-69
2023/07/28 02:11:27;;;;;;;;;;;24.10;60.00;;;;;;3048589;19;4854;-68
2023/07/28 02:12:28;;;;;;;;;;;24.00;59.80;;;;;;3049281;19;4687;-69
2023/07/28 02:13:29;;;;;;;;;;;24.00;60.40;;;;;;3049436;19;4845;-67
2023/07/28 02:14:29;;;;;;;;;;;24.10;59.80;;;;;;3048509;19;4878;-70
2023/07/28 02:15:30;;;;;;;;;;;24.10;59.90;;;;;;3048579;19;5339;-69
2023/07/28 02:16:32;;;;;;;;;;;24.00;59.80;;;;;;3049679;19;5494;-69
2023/07/28 02:17:32;;;;;;;;;;;24.00;59.90;;;;;;3048591;19;5488;-69
2023/07/28 02:18:33;;;;;;;;;;;24.00;59.90;;;;;;3049707;19;4659;-69
2023/07/28 02:19:34;;;;;;;;;;;24.00;59.90;;;;;;3050395;19;4828;-67
2023/07/28 02:20:35;;;;;;;;;;;23.90;60.00;;;;;;3050791;19;5412;-70
2023/07/28 02:21:36;;;;;;;;;;;24.00;60.00;;;;;;3050140;19;4704;-69
2023/07/28 02:22:36;;;;;;;;;;;24.10;60.00;;;;;;3049048;19;4687;-70
2023/07/28 02:23:37;;;;;;;;;;;24.00;59.90;;;;;;3048447;19;5463;-68
2023/07/28 02:24:38;;;;;;;;;;;24.00;59.90;;;;;;3049946;19;5308;-68
2023/07/28 02:25:39;;;;;;;;;;;24.00;59.90;;;;;;3049825;19;5378;-70
2023/07/28 02:26:39;;;;;;;;;;;24.00;60.00;;;;;;3050575;19;5223;-70
2023/07/28 02:27:40;;;;;;;;;;;24.00;60.00;;;;;;3049441;19;5036;-70
2023/07/28 02:28:41;;;;;;;;;;;24.00;60.00;;;;;;3050489;19;4647;-69
2023/07/28 02:29:45;;;;;;;;;;;24.00;60.00;;;;;;3048998;19;4826;-69
2023/07/28 02:30:46;;;;;;;;;;;24.00;60.00;;;;;;3049437;19;5354;-70
2023/07/28 02:31:46;;;;;;;;;;;24.00;60.10;;;;;;3049071;19;5271;-70
2023/07/28 02:32:47;;;;;;;;;;;24.00;60.00;;;;;;3051709;19;5445;-69
2023/07/28 02:33:48;;;;;;;;;;;24.00;60.00;;;;;;3051848;19;5275;-69
2023/07/28 02:34:49;;;;;;;;;;;24.00;60.00;;;;;;3052135;19;5370;-70
2023/07/28 02:35:49;;;;;;;;;;;24.00;60.10;;;;;;3050329;19;5470;-69
2023/07/28 02:36:50;;;;;;;;;;;24.10;60.10;;;;;;3050366;19;5368;-70
2023/07/28 02:37:51;;;;;;;;;;;24.00;60.10;;;;;;3049199;19;5150;-69
2023/07/28 02:38:51;;;;;;;;;;;23.90;60.00;;;;;;3050317;19;4630;-70
2023/07/28 02:39:52;;;;;;;;;;;24.00;60.10;;;;;;3050441;19;4683;-70
2023/07/28 02:40:53;;;;;;;;;;;24.00;60.10;;;;;;3050441;19;5416;-69
2023/07/28 02:41:53;;;;;;;;;;;24.00;60.10;;;;;;3050059;19;4816;-69
2023/07/28 02:42:54;;;;;;;;;;;24.00;60.10;;;;;;3049650;19;5422;-71
2023/07/28 02:43:55;;;;;;;;;;;24.00;60.20;;;;;;3049379;19;4968;-70
2023/07/28 02:44:55;;;;;;;;;;;24.00;60.10;;;;;;3050425;19;6601;-70
2023/07/28 02:45:56;;;;;;;;;;;24.00;60.10;;;;;;3049945;19;4788;-69
2023/07/28 02:46:57;;;;;;;;;;;24.00;60.10;;;;;;3048969;19;5348;-69
2023/07/28 02:47:58;;;;;;;;;;;24.00;60.10;;;;;;3047889;19;4790;-71
2023/07/28 02:48:58;;;;;;;;;;;24.00;60.10;;;;;;3051045;19;5287;-70
2023/07/28 02:49:59;;;;;;;;;;;24.00;60.20;;;;;;3050187;19;5347;-69
2023/07/28 02:51:00;;;;;;;;;;;24.00;60.10;;;;;;3051679;19;5309;-69
2023/07/28 02:52:00;;;;;;;;;;;24.00;60.20;;;;;;3051340;19;5314;-68
2023/07/28 02:53:01;;;;;;;;;;;24.00;60.10;;;;;;3048478;19;5385;-70
2023/07/28 02:54:02;;;;;;;;;;;24.00;60.10;;;;;;3048270;19;5149;-69
2023/07/28 02:55:04;;;;;;;;;;;24.00;60.10;;;;;;3047856;19;5307;-73
2023/07/28 02:56:04;;;;;;;;;;;24.00;60.30;;;;;;3048829;19;6360;-70
2023/07/28 02:57:05;;;;;;;;;;;24.00;60.10;;;;;;3048530;19;4830;-71
2023/07/28 02:58:06;;;;;;;;;;;24.00;60.20;;;;;;3047038;19;18972;-68
2023/07/28 02:59:07;;;;;;;;;;;24.00;60.20;;;;;;3048067;19;4762;-69
2023/07/28 03:00:10;;;;;;;;;;;23.90;60.10;;;;;;3050056;19;812;-69
2023/07/28 03:01:11;;;;;;;;;;;24.00;60.10;;;;;;3049885;19;4502;-71
2023/07/28 03:02:12;;;;;;;;;;;24.00;60.20;;;;;;3051009;19;5442;-69
2023/07/28 03:03:13;;;;;;;;;;;24.00;60.10;;;;;;3050601;19;5267;-70
2023/07/28 03:04:13;;;;;;;;;;;24.00;60.10;;;;;;3049525;19;5344;-71
2023/07/28 03:05:14;;;;;;;;;;;24.00;60.10;;;;;;3049836;19;5385;-70
2023/07/28 03:06:15;;;;;;;;;;;24.00;60.20;;;;;;3048358;19;5858;-69
2023/07/28 03:07:15;;;;;;;;;;;23.90;60.10;;;;;;3047899;19;5850;-69
2023/07/28 03:08:16;;;;;;;;;;;24.00;60.10;;;;;;3049287;19;5447;-69
2023/07/28 03:09:17;;;;;;;;;;;24.00;60.30;;;;;;3048609;19;5291;-69
2023/07/28 03:10:17;;;;;;;;;;;24.00;60.10;;;;;;3049717;19;5328;-70
2023/07/28 03:11:18;;;;;;;;;;;24.00;60.10;;;;;;3051377;19;5949;-70
2023/07/28 03:12:20;;;;;;;;;;;24.00;60.20;;;;;;3051603;19;4987;-70
2023/07/28 03:13:21;;;;;;;;;;;24.00;60.30;;;;;;3052770;19;4906;-71
2023/07/28 03:14:22;;;;;;;;;;;24.00;60.30;;;;;;3053098;19;4907;-70
2023/07/28 03:15:22;;;;;;;;;;;24.00;60.20;;;;;;3051702;19;5375;-72
2023/07/28 03:16:23;;;;;;;;;;;24.00;60.20;;;;;;3053030;19;5820;-73
2023/07/28 03:17:24;;;;;;;;;;;24.00;60.20;;;;;;3054443;19;5390;-71
2023/07/28 03:18:25;;;;;;;;;;;23.90;60.30;;;;;;3052915;19;5431;-73
2023/07/28 03:19:26;;;;;;;;;;;23.90;60.20;;;;;;3053682;19;5389;-72
2023/07/28 03:20:26;;;;;;;;;;;23.90;60.20;;;;;;3051506;19;5086;-70
2023/07/28 03:21:29;;;;;;;;;;;23.90;60.20;;;;;;3052385;19;5295;-71
2023/07/28 03:22:30;;;;;;;;;;;23.90;60.20;;;;;;3053178;19;5397;-71
2023/07/28 03:23:31;;;;;;;;;;;23.90;60.20;;;;;;3053789;19;5363;-71
2023/07/28 03:24:31;;;;;;;;;;;23.90;60.30;;;;;;3052619;19;4823;-71
2023/07/28 03:25:32;;;;;;;;;;;23.60;60.10;;;;;;3054732;19;5397;-71
2023/07/28 03:26:33;;;;;;;;;;;23.90;60.30;;;;;;3053965;19;5408;-70
2023/07/28 03:27:34;;;;;;;;;;;23.90;60.30;;;;;;3054718;19;6713;-70
2023/07/28 03:28:34;;;;;;;;;;;23.90;60.30;;;;;;3055077;19;5423;-72
2023/07/28 03:29:35;;;;;;;;;;;23.90;60.30;;;;;;3058611;19;5360;-69
2023/07/28 03:30:36;;;;;;;;;;;23.90;60.30;;;;;;3055434;19;5226;-71
2023/07/28 03:31:36;;;;;;;;;;;23.90;60.30;;;;;;3053343;19;5587;-69
2023/07/28 03:32:37;;;;;;;;;;;23.30;60.00;;;;;;3052955;19;5299;-69
2023/07/28 03:33:38;;;;;;;;;;;23.90;60.30;;;;;;3051951;19;4795;-69
2023/07/28 03:34:38;;;;;;;;;;;23.90;60.30;;;;;;3053081;19;4628;-68
2023/07/28 03:35:39;;;;;;;;;;;23.90;60.20;;;;;;3053202;19;5323;-69
2023/07/28 03:36:39;;;;;;;;;;;23.90;60.40;;;;;;3049709;19;5333;-70
2023/07/28 03:37:40;;;;;;;;;;;23.90;60.40;;;;;;3053828;19;5424;-70
2023/07/28 03:38:41;;;;;;;;;;;23.90;60.40;;;;;;3054163;19;5359;-69
2023/07/28 03:39:41;;;;;;;;;;;23.90;60.30;;;;;;3058608;19;5214;-70
2023/07/28 03:40:43;;;;;;;;;;;23.90;60.40;;;;;;3057056;19;5402;-69
2023/07/28 03:41:44;;;;;;;;;;;24.00;60.80;;;;;;3056334;19;5343;-69
2023/07/28 03:42:44;;;;;;;;;;;24.10;60.80;;;;;;3057247;19;4703;-68
2023/07/28 03:43:45;;;;;;;;;;;24.10;60.60;;;;;;3056178;19;5727;-69
2023/07/28 03:44:46;;;;;;;;;;;24.20;60.50;;;;;;3056239;19;5688;-68
2023/07/28 03:45:46;;;;;;;;;;;24.30;60.10;;;;;;3055875;19;4851;-68
2023/07/28 03:46:47;;;;;;;;;;;24.30;60.00;;;;;;3054131;19;5410;-69
2023/07/28 03:47:48;;;;;;;;;;;24.40;59.90;;;;;;3056590;19;5366;-70
2023/07/28 03:48:49;;;;;;;;;;;24.50;59.90;;;;;;3056263;19;5406;-69
2023/07/28 03:49:50;;;;;;;;;;;24.50;59.70;;;;;;3054583;19;5337;-68
2023/07/28 03:50:52;;;;;;;;;;;24.50;59.60;;;;;;3054683;19;4983;-68
2023/07/28 03:51:53;;;;;;;;;;;24.50;59.60;;;;;;3056268;19;4812;-68
2023/07/28 03:52:54;;;;;;;;;;;24.50;59.50;;;;;;3055459;19;4793;-69
2023/07/28 03:53:54;;;;;;;;;;;24.50;59.60;;;;;;3033235;19;5256;-68
2023/07/28 03:54:56;;;;;;;;;;;24.60;59.60;;;;;;3054669;19;4628;-68
2023/07/28 03:55:58;;;;;;;;;;;24.60;59.50;;;;;;3055678;19;5421;-68
2023/07/28 03:56:59;;;;;;;;;;;24.50;59.70;;;;;;3056322;19;4755;-68
2023/07/28 03:57:59;;;;;;;;;;;24.50;59.50;;;;;;3055880;19;5403;-69
2023/07/28 03:59:01;;;;;;;;;;;24.50;60.20;;;;;;3054434;19;5508;-69
2023/07/28 04:00:02;;;;;;;;;;;24.50;59.60;;;;;;3055180;19;4965;-68
2023/07/28 04:01:07;;;;;;;;;;;24.50;59.60;;;;;;3055071;19;4848;-69
2023/07/28 04:02:08;;;;;;;;;;;24.50;59.60;;;;;;3056476;19;6300;-69
2023/07/28 04:03:08;;;;;;;;;;;24.50;59.60;;;;;;3056509;19;940;-69
2023/07/28 04:04:09;;;;;;;;;;;24.50;59.60;;;;;;3055572;19;5269;-68
2023/07/28 04:05:10;;;;;;;;;;;24.50;59.70;;;;;;3054789;19;5398;-69
2023/07/28 04:06:11;;;;;;;;;;;24.50;59.70;;;;;;3054984;19;5354;-68
2023/07/28 04:07:13;;;;;;;;;;;24.20;59.60;;;;;;3056392;19;4823;-68
2023/07/28 04:08:14;;;;;;;;;;;24.40;59.60;;;;;;3054840;19;5498;-69
2023/07/28 04:09:14;;;;;;;;;;;24.50;59.70;;;;;;3053717;19;4868;-68
2023/07/28 04:10:16;;;;;;;;;;;24.50;59.60;;;;;;3053398;19;5475;-68
2023/07/28 04:11:17;;;;;;;;;;;24.60;59.40;;;;;;3055415;19;5367;-68
2023/07/28 04:12:17;;;;;;;;;;;24.60;59.20;;;;;;3054994;19;4898;-69
2023/07/28 04:13:20;;;;;;;;;;;24.70;59.00;;;;;;3054295;19;4773;-68
2023/07/28 04:14:23;;;;;;;;;;;24.70;59.00;;;;;;3054756;19;4950;-69
2023/07/28 04:15:23;;;;;;;;;;;24.70;59.00;;;;;;3056141;19;6298;-69
2023/07/28 04:16:24;;;;;;;;;;;24.80;58.80;;;;;;3054483;19;5221;-69
2023/07/28 04:17:25;;;;;;;;;;;24.80;58.90;;;;;;3054674;19;6552;-69
2023/07/28 04:18:25;;;;;;;;;;;24.80;58.90;;;;;;3055177;19;4623;-69
2023/07/28 04:19:29;;;;;;;;;;;24.80;58.80;;;;;;3054883;19;4661;-69
2023/07/28 04:20:30;;;;;;;;;;;24.80;58.80;;;;;;3053857;19;4926;-69
2023/07/28 04:21:32;;;;;;;;;;;24.80;58.80;;;;;;3055238;19;5387;-68
2023/07/28 04:22:34;;;;;;;;;;;24.80;58.80;;;;;;3051852;19;5389;-69
2023/07/28 04:23:35;;;;;;;;;;;24.70;58.90;;;;;;3032027;19;5221;-69
2023/07/28 04:24:35;;;;;;;;;;;24.70;58.90;;;;;;3051998;19;5457;-68
2023/07/28 04:25:37;;;;;;;;;;;24.70;58.90;;;;;;3052731;19;5389;-69
2023/07/28 04:26:38;;;;;;;;;;;24.70;59.00;;;;;;3055280;19;5277;-68
2023/07/28 04:27:38;;;;;;;;;;;24.70;59.00;;;;;;3054706;19;5439;-68
2023/07/28 04:28:39;;;;;;;;;;;24.70;59.10;;;;;;3055945;19;5243;-68
2023/07/28 04:29:41;;;;;;;;;;;24.70;59.40;;;;;;3057137;19;6423;-69
2023/07/28 04:30:43;;;;;;;;;;;24.70;59.10;;;;;;3056998;19;5230;-68
2023/07/28 04:31:43;;;;;;;;;;;24.70;59.10;;;;;;3057245;19;5517;-68
2023/07/28 04:32:46;;;;;;;;;;;24.40;59.00;;;;;;3054920;19;5344;-68
2023/07/28 04:33:46;;;;;;;;;;;24.70;59.20;;;;;;3055265;19;5388;-69
2023/07/28 04:34:48;;;;;;;;;;;24.70;59.20;;;;;;3055592;19;4632;-68
2023/07/28 04:35:49;;;;;;;;;;;24.60;59.20;;;;;;3054224;19;4831;-69
2023/07/28 04:36:49;;;;;;;;;;;24.60;59.20;;;;;;3053221;19;4826;-69
2023/07/28 04:37:50;;;;;;;;;;;24.60;59.20;;;;;;3054080;19;4662;-68
2023/07/28 04:38:52;;;;;;;;;;;24.60;59.30;;;;;;3054016;19;4799;-68
2023/07/28 04:39:53;;;;;;;;;;;24.60;59.20;;;;;;3054110;19;4812;-69
2023/07/28 04:40:55;;;;;;;;;;;24.60;59.30;;;;;;3053732;19;5462;-68
2023/07/28 04:41:55;;;;;;;;;;;24.70;59.20;;;;;;3052772;19;5206;-68
2023/07/28 04:42:56;;;;;;;;;;;24.70;58.90;;;;;;3053976;19;5281;-67
2023/07/28 04:43:57;;;;;;;;;;;24.80;58.80;;;;;;3054604;19;6622;-68
2023/07/28 04:44:57;;;;;;;;;;;24.90;58.70;;;;;;3054550;19;5415;-67
2023/07/28 04:45:58;;;;;;;;;;;24.90;58.60;;;;;;3054049;19;5323;-68
2023/07/28 04:46:59;;;;;;;;;;;24.90;58.50;;;;;;3053251;19;5318;-69
2023/07/28 04:47:59;;;;;;;;;;;25.00;58.50;;;;;;3032700;19;5231;-68
2023/07/28 04:49:02;;;;;;;;;;;24.90;58.50;;;;;;3032832;19;4706;-68
2023/07/28 04:50:03;;;;;;;;;;;24.90;58.50;;;;;;3053572;19;4641;-69
2023/07/28 04:51:04;;;;;;;;;;;24.90;58.50;;;;;;3054234;19;4954;-67
2023/07/28 04:52:05;;;;;;;;;;;24.90;58.50;;;;;;3054875;19;5383;-68
2023/07/28 04:53:05;;;;;;;;;;;24.90;58.50;;;;;;3050483;19;5806;-68
2023/07/28 04:54:07;;;;;;;;;;;24.90;58.50;;;;;;3052122;19;6636;-69
2023/07/28 04:55:08;;;;;;;;;;;24.90;58.60;;;;;;3051005;19;5413;-67
2023/07/28 04:56:08;;;;;;;;;;;24.90;58.60;;;;;;3051193;19;5222;-69
2023/07/28 04:57:09;;;;;;;;;;;24.90;58.60;;;;;;3051987;19;5393;-67
2023/07/28 04:58:11;;;;;;;;;;;24.90;58.70;;;;;;3051952;19;5428;-68
2023/07/28 04:59:11;;;;;;;;;;;24.90;58.70;;;;;;3051584;19;4603;-69
2023/07/28 05:00:12;;;;;;;;;;;24.90;58.80;;;;;;3053799;19;4719;-68
2023/07/28 05:01:14;;;;;;;;;;;24.90;58.80;;;;;;3054785;19;920;-68
2023/07/28 05:02:15;;;;;;;;;;;24.90;58.80;;;;;;3054343;19;5230;-68
2023/07/28 05:03:16;;;;;;;;;;;24.90;58.80;;;;;;3052384;19;5312;-68
2023/07/28 05:04:17;;;;;;;;;;;24.90;59.00;;;;;;3054114;19;5020;-69
2023/07/28 05:05:17;;;;;;;;;;;24.80;59.00;;;;;;3054879;19;5249;-68
2023/07/28 05:06:18;;;;;;;;;;;24.90;59.00;;;;;;3053647;19;5577;-68
2023/07/28 05:07:20;;;;;;;;;;;24.90;59.10;;;;;;3055047;19;5335;-69
2023/07/28 05:08:20;;;;;;;;;;;24.80;59.30;;;;;;3055543;19;5272;-69
2023/07/28 05:09:21;;;;;;;;;;;24.80;59.10;;;;;;3054376;19;5768;-68
2023/07/28 05:10:22;;;;;;;;;;;24.80;59.20;;;;;;3054044;19;5388;-69
2023/07/28 05:11:23;;;;;;;;;;;24.90;59.00;;;;;;3054229;19;4973;-68
2023/07/28 05:12:23;;;;;;;;;;;24.80;59.10;;;;;;3054652;19;6507;-69
2023/07/28 05:13:24;;;;;;;;;;;24.80;59.00;;;;;;3054238;19;5491;-69
2023/07/28 05:14:24;;;;;;;;;;;24.80;59.10;;;;;;3054375;19;5372;-69
2023/07/28 05:15:25;;;;;;;;;;;24.80;59.00;;;;;;3055330;19;6499;-68
2023/07/28 05:16:26;;;;;;;;;;;24.90;59.10;;;;;;3053772;19;5300;-68
2023/07/28 05:17:28;;;;;;;;;;;24.80;59.10;;;;;;3054989;19;4854;-68
2023/07/28 05:18:29;;;;;;;;;;;24.80;59.10;;;;;;3053938;19;5328;-68
2023/07/28 05:19:29;;;;;;;;;;;24.90;59.10;;;;;;3054159;19;5642;-67
2023/07/28 05:20:30;;;;;;;;;;;24.90;58.90;;;;;;3053721;19;5403;-67
2023/07/28 05:21:31;;;;;;;;;;;24.90;58.80;;;;;;3054733;19;5415;-68
2023/07/28 05:22:32;;;;;;;;;;;25.00;58.60;;;;;;3053296;19;5351;-67
2023/07/28 05:23:32;;;;;;;;;;;25.00;58.50;;;;;;3054415;19;6450;-66
2023/07/28 05:24:34;;;;;;;;;;;25.00;58.70;;;;;;3054727;19;4830;-68
2023/07/28 05:25:36;;;;;;;;;;;25.00;58.50;;;;;;3052815;19;5331;-69
2023/07/28 05:26:36;;;;;;;;;;;25.10;58.60;;;;;;3054066;19;5532;-69
2023/07/28 05:27:38;;;;;;;;;;;25.00;58.60;;;;;;3053875;19;5371;-69
2023/07/28 05:28:39;;;;;;;;;;;25.00;58.60;;;;;;3054116;19;5380;-68
2023/07/28 05:29:41;;;;;;;;;;;25.00;58.50;;;;;;3054395;19;5406;-69
2023/07/28 05:30:43;;;;;;;;;;;25.00;58.50;;;;;;3055087;19;5381;-68
2023/07/28 05:31:44;;;;;;;;;;;25.00;58.80;;;;;;3054563;19;5243;-68
2023/07/28 05:32:46;;;;;;;;;;;25.00;58.70;;;;;;3054901;19;5413;-67
2023/07/28 05:33:46;;;;;;;;;;;25.00;58.60;;;;;;3054394;19;4955;-68
2023/07/28 05:34:47;;;;;;;;;;;25.00;58.80;;;;;;3056697;19;5293;-68
2023/07/28 05:35:48;;;;;;;;;;;25.00;58.90;;;;;;3056694;19;5415;-69
2023/07/28 05:36:49;;;;;;;;;;;25.00;58.80;;;;;;3055750;19;5413;-68
2023/07/28 05:37:50;;;;;;;;;;;25.00;58.80;;;;;;3057144;19;5765;-69
2023/07/28 05:38:53;;;;;;;;;;;25.00;58.90;;;;;;3057012;19;5334;-69
2023/07/28 05:39:54;;;;;;;;;;;25.00;58.90;;;;;;3057834;19;4669;-69
2023/07/28 05:41:02;;;;;;;;;;;25.00;59.50;;;;;;3057551;19;4806;-69
2023/07/28 05:42:03;;;;;;;;;;;24.90;59.10;;;;;;3057583;19;6187;-68
2023/07/28 05:43:04;;;;;;;;;;;24.90;59.00;;;;;;3057223;19;4883;-69
2023/07/28 05:44:06;;;;;;;;;;;24.90;58.90;;;;;;3056317;19;4912;-68
2023/07/28 05:45:09;;;;;;;;;;;24.90;58.80;;;;;;3057711;19;4936;-68
2023/07/28 05:46:09;;;;;;;;;;;24.90;58.90;;;;;;3057657;19;5470;-68
2023/07/28 05:47:10;;;;;;;;;;;24.90;59.00;;;;;;3057328;19;6208;-69
2023/07/28 05:48:11;;;;;;;;;;;24.90;58.80;;;;;;3055467;19;5328;-68
2023/07/28 05:49:12;;;;;;;;;;;24.90;58.90;;;;;;3058104;19;5273;-68
2023/07/28 05:50:12;;;;;;;;;;;24.90;59.00;;;;;;3056979;19;4700;-68
2023/07/28 05:51:13;;;;;;;;;;;24.90;59.20;;;;;;3057226;19;5282;-67
2023/07/28 05:52:15;;;;;;;;;;;24.90;58.80;;;;;;3057529;19;4909;-69
2023/07/28 05:53:15;;;;;;;;;;;24.90;59.10;;;;;;3058058;19;4873;-68
2023/07/28 05:54:16;;;;;;;;;;;24.90;59.00;;;;;;3059525;19;5287;-69
2023/07/28 05:55:16;;;;;;;;;;;24.90;59.10;;;;;;3061218;19;5270;-69
2023/07/28 05:56:18;;;;;;;;;;;24.90;59.10;;;;;;3060712;19;4795;-68
2023/07/28 05:57:19;;;;;;;;;;;24.90;59.10;;;;;;3067292;19;5348;-71
2023/07/28 05:58:20;;;;;;;;;;;24.90;59.30;;;;;;3064813;19;5214;-69
2023/07/28 05:59:22;;;;;;;;;;;24.80;59.30;;;;;;3066749;19;4813;-69
2023/07/28 06:00:22;;;;;;;;;;;24.90;59.00;;;;;;3064261;19;5389;-69
2023/07/28 06:01:26;;;;;;;;;;;24.90;59.10;;;;;;3065507;19;5257;-70
2023/07/28 06:02:27;;;;;;;;;;;24.80;59.40;;;;;;3069105;19;5409;-69
2023/07/28 06:03:29;;;;;;;;;;;24.90;59.20;;;;;;3071089;19;5971;-69
2023/07/28 06:04:31;;;;;;;;;;;24.80;59.30;;;;;;3070819;19;4840;-70
2023/07/28 06:05:31;;;;;;;;;;;24.90;59.10;;;;;;3072339;19;4886;-69
2023/07/28 06:06:32;;;;;;;;;;;24.80;59.40;;;;;;3065746;19;4654;-69
2023/07/28 06:07:32;;;;;;;;;;;24.90;59.40;;;;;;3067175;19;4746;-71
2023/07/28 06:08:34;;;;;;;;;;;24.90;59.00;;;;;;3071810;19;5356;-70
2023/07/28 06:09:35;;;;;;;;;;;25.00;59.20;;;;;;3071671;19;5317;-69